ΕΜΥ, Εθνική Μετεωρολογική Υπηρεσία - Δελτία Καιρού, Προγνώσεις

ΑΕΡΟΝΑΥΤΙΛΙΑ

GREEK AIRPORTS CODES

TAF LGMG 170400Z 1706/1715 VRB03KT 9999 FEW030 BECMG 1709/1711 33013KT=

EUROPEAN AIRPORTS CODES

LFPO 170530Z 06001KT CAVOK 17/12 Q1020 NOSIG=